Time;durP1;ratioP1;P1;durP2;ratioP2;P2;SDS_P1;SDS_P2;PMS_P1;PMS_P2;Temp;Humidity;BMP_temperature;BMP_pressure;BME280_temperature;BME280_humidity;BME280_pressure;Samples;Min_cycle;Max_cycle;Signal;HPM_P1;HPM_P2
2022/12/13 15:03:25;;;;;;;40.20;18.55;;;-3275.60;85.10;;;;;;5131773;27;20432;-58
2022/12/13 15:05:56;;;;;;;43.45;21.30;;;-3275.60;85.30;;;;;;5113173;28;20034;-54
2022/12/13 15:08:23;;;;;;;44.45;21.27;;;-3275.70;85.40;;;;;;5131455;28;20023;-58
2022/12/13 15:10:51;;;;;;;56.90;23.23;;;-3275.80;84.80;;;;;;5131569;28;20019;-59
2022/12/13 15:13:23;;;;;;;49.25;24.73;;;-3275.70;84.70;;;;;;5131517;28;20023;-55
2022/12/13 15:15:59;;;;;;;49.53;22.35;;;-3275.70;84.80;;;;;;5130956;28;20076;-55
2022/12/13 15:18:26;;;;;;;47.47;23.02;;;-3275.80;84.20;;;;;;5129649;28;20112;-55
2022/12/13 15:20:53;;;;;;;46.83;24.48;;;-3275.90;84.00;;;;;;5130807;27;20123;-58
2022/12/13 15:23:30;;;;;;;47.10;22.33;;;-3275.90;83.90;;;;;;5131002;27;20361;-56
2022/12/13 15:26:09;;;;;;;50.10;22.88;;;-3275.80;83.80;;;;;;5129844;28;20114;-55
2022/12/13 15:28:38;;;;;;;47.65;22.65;;;-3275.80;83.90;;;;;;5131143;27;20533;-57
2022/12/13 15:31:05;;;;;;;56.55;23.48;;;-3275.80;83.80;;;;;;5129732;28;20020;-59
2022/12/13 15:33:31;;;;;;;45.85;21.40;;;-3275.70;84.00;;;;;;5131113;27;20042;-56
2022/12/13 15:36:27;;;;;;;37.97;20.20;;;-3275.70;84.20;;;;;;5131181;27;20391;-56
2022/12/13 15:38:56;;;;;;;47.65;22.17;;;-3275.70;84.30;;;;;;5132843;27;20020;-55
2022/12/13 15:41:44;;;;;;;50.40;24.73;;;-3275.70;84.40;;;;;;5129461;28;20439;-56
2022/12/13 15:44:29;;;;;;;47.20;22.05;;;-3275.60;84.50;;;;;;5130886;28;20069;-59
2022/12/13 15:47:03;;;;;;;51.47;23.98;;;-3275.60;84.70;;;;;;5130991;27;20019;-59
2022/12/13 15:49:39;;;;;;;45.20;23.77;;;-3275.60;84.70;;;;;;5130935;27;20023;-57
2022/12/13 15:52:13;;;;;;;45.30;21.73;;;-3275.70;84.80;;;;;;5130718;27;20030;-55
2022/12/13 15:54:40;;;;;;;62.15;24.88;;;-3275.60;84.80;;;;;;5130609;27;20059;-58
2022/12/13 15:57:21;;;;;;;44.50;21.83;;;-3275.50;84.80;;;;;;5130607;27;20084;-55
2022/12/13 15:59:47;;;;;;;45.65;22.55;;;-3275.50;84.90;;;;;;5130451;27;20440;-55
2022/12/13 16:02:17;;;;;;;41.85;21.00;;;-3275.50;85.00;;;;;;5129760;27;20122;-55
2022/12/13 16:04:43;;;;;;;50.25;20.65;;;-3275.60;85.00;;;;;;5130523;27;20412;-58
2022/12/13 16:07:26;;;;;;;41.33;23.23;;;-3275.50;85.00;;;;;;5128929;28;20054;-56
2022/12/13 16:09:53;;;;;;;49.78;22.15;;;-3275.70;85.00;;;;;;5130083;28;20106;-56
2022/12/13 16:12:24;;;;;;;48.03;22.70;;;-3275.70;84.80;;;;;;5130035;27;20369;-55
2022/12/13 16:14:50;;;;;;;47.30;21.42;;;-3275.70;84.40;;;;;;5116376;28;20020;-56
2022/12/13 16:17:24;;;;;;;55.42;21.85;;;-3275.60;84.70;;;;;;5116119;28;20560;-55
2022/12/13 16:19:55;;;;;;;36.58;19.67;;;-3275.50;84.70;;;;;;5115683;28;20024;-56
2022/12/13 16:22:22;;;;;;;39.10;18.83;;;-3275.70;84.60;;;;;;5116201;28;20019;-58
2022/12/13 16:24:49;;;;;;;51.78;24.23;;;-3275.50;84.70;;;;;;5116157;28;20092;-57
2022/12/13 16:27:15;;;;;;;40.55;21.55;;;-3275.40;85.00;;;;;;5116147;28;20023;-59
2022/12/13 16:29:41;;;;;;;46.88;22.50;;;-3275.40;85.20;;;;;;5114488;28;20030;-54
2022/12/13 16:32:06;;;;;;;49.63;23.50;;;-3275.40;85.20;;;;;;5116094;28;20046;-55
2022/12/13 16:34:32;;;;;;;46.88;22.63;;;-3275.40;85.30;;;;;;5116039;28;20532;-57
2022/12/13 16:37:00;;;;;;;51.50;22.90;;;-3275.30;85.30;;;;;;5114761;28;20065;-53
2022/12/13 16:39:26;;;;;;;47.00;22.55;;;-3275.30;85.20;;;;;;5114802;28;20084;-57
2022/12/13 16:41:52;;;;;;;41.80;21.65;;;-3275.40;85.20;;;;;;5115775;28;20027;-53
2022/12/13 16:44:22;;;;;;;52.00;22.60;;;-3275.40;85.00;;;;;;5115872;28;20045;-56
2022/12/13 16:46:48;;;;;;;57.05;22.02;;;-3275.50;84.90;;;;;;5114800;28;20065;-54
2022/12/13 16:49:20;;;;;;;42.53;22.00;;;-3275.50;84.50;;;;;;5114473;28;20031;-55
2022/12/13 16:51:46;;;;;;;37.58;19.50;;;-3275.40;84.20;;;;;;5116001;28;20089;-56
2022/12/13 16:54:11;;;;;;;47.30;20.45;;;-3275.40;84.20;;;;;;5114673;28;20023;-58
2022/12/13 16:56:37;;;;;;;31.48;17.23;;;-3275.50;84.10;;;;;;5115607;28;20031;-57
2022/12/13 16:59:03;;;;;;;29.67;16.35;;;-3275.50;84.10;;;;;;5115737;28;20024;-53
2022/12/13 17:01:31;;;;;;;38.60;17.63;;;-3275.40;83.80;;;;;;5114864;28;20036;-56
2022/12/13 17:03:57;;;;;;;34.05;17.15;;;-3275.40;83.90;;;;;;5116110;28;20351;-56
2022/12/13 17:06:23;;;;;;;42.42;17.73;;;-3275.40;83.90;;;;;;5115730;28;20024;-58
2022/12/13 17:08:49;;;;;;;40.17;19.58;;;-3275.40;83.90;;;;;;5113782;28;20027;-55
2022/12/13 17:11:15;;;;;;;49.42;20.80;;;-3275.40;84.00;;;;;;5115357;28;20371;-55
2022/12/13 17:13:43;;;;;;;30.75;17.52;;;-3275.30;84.00;;;;;;5115212;28;20024;-56
2022/12/13 17:16:12;;;;;;;35.95;18.15;;;-3275.30;84.20;;;;;;5115271;28;20064;-54
2022/12/13 17:18:38;;;;;;;36.28;19.23;;;-3275.30;84.10;;;;;;5115299;28;20020;-58
2022/12/13 17:21:08;;;;;;;23.15;11.43;;;-3275.20;84.20;;;;;;5113865;28;20448;-59
2022/12/13 17:23:34;;;;;;;35.85;18.33;;;-3275.30;84.30;;;;;;5115375;28;20024;-58
2022/12/13 17:26:09;;;;;;;38.08;17.98;;;-3275.30;84.30;;;;;;5114367;28;20035;-59
2022/12/13 17:28:34;;;;;;;38.72;18.60;;;-3275.30;84.30;;;;;;5113956;28;20023;-58
2022/12/13 17:31:10;;;;;;;39.83;17.48;;;-3275.20;84.20;;;;;;5115153;28;20462;-55
2022/12/13 17:33:37;;;;;;;39.67;17.35;;;-3275.20;84.30;;;;;;5113826;28;20023;-56
2022/12/13 17:36:04;;;;;;;42.42;19.45;;;-3275.20;84.30;;;;;;5114895;28;20354;-57
2022/12/13 17:38:30;;;;;;;29.35;15.65;;;-3275.30;84.20;;;;;;5114769;28;20019;-58
2022/12/13 17:40:55;;;;;;;42.78;19.83;;;-3275.20;84.20;;;;;;5116210;28;20020;-55
2022/12/13 17:43:22;;;;;;;36.47;19.75;;;-3275.20;84.30;;;;;;5114810;28;20020;-58
2022/12/13 17:45:54;;;;;;;30.83;15.52;;;-3275.20;84.20;;;;;;5114828;28;20023;-55
2022/12/13 17:48:19;;;;;;;40.65;18.05;;;-3275.20;84.20;;;;;;5114934;28;20092;-57
2022/12/13 17:50:45;;;;;;;37.85;18.45;;;-3275.20;84.40;;;;;;5114832;28;20463;-54
2022/12/13 17:53:11;;;;;;;33.05;15.77;;;-3275.20;84.40;;;;;;5113218;28;20016;-56
2022/12/13 17:55:38;;;;;;;38.42;18.48;;;-3275.20;84.50;;;;;;5113445;28;20391;-57
2022/12/13 17:58:04;;;;;;;37.85;17.00;;;-3275.20;84.40;;;;;;5113514;28;20030;-57
2022/12/13 18:00:30;;;;;;;39.60;19.90;;;-3275.30;84.20;;;;;;5115247;28;20459;-59
2022/12/13 18:02:55;;;;;;;31.58;16.60;;;-3275.30;84.00;;;;;;5114435;27;20118;-60
2022/12/13 18:05:23;;;;;;;39.40;16.60;;;-3275.30;83.80;;;;;;5114887;28;20056;-58
2022/12/13 18:07:49;;;;;;;30.40;16.77;;;-3275.30;83.90;;;;;;5114659;28;20023;-57
2022/12/13 18:10:15;;;;;;;38.20;17.38;;;-3275.20;84.00;;;;;;5114297;28;20429;-58
2022/12/13 18:12:40;;;;;;;39.08;18.77;;;-3275.20;83.90;;;;;;5112515;28;20114;-57
2022/12/13 18:15:07;;;;;;;36.92;18.67;;;-3275.30;83.90;;;;;;5113999;28;20024;-57
2022/12/13 18:17:32;;;;;;;40.42;20.35;;;-3275.30;83.80;;;;;;5115388;28;20379;-55
2022/12/13 18:19:59;;;;;;;36.42;19.98;;;-3275.30;83.70;;;;;;5114201;28;20024;-55
2022/12/13 18:22:25;;;;;;;34.10;19.00;;;-3275.20;83.80;;;;;;5114278;28;20531;-57
2022/12/13 18:24:51;;;;;;;38.75;19.23;;;-3275.20;84.00;;;;;;5112693;28;20110;-57
2022/12/13 18:27:16;;;;;;;38.28;20.20;;;-3275.10;84.30;;;;;;5114071;28;20386;-56
2022/12/13 18:29:43;;;;;;;41.92;19.83;;;-3275.20;84.40;;;;;;5112716;28;20027;-57
2022/12/13 18:32:08;;;;;;;37.92;19.65;;;-3275.20;84.50;;;;;;5112543;28;20084;-57
2022/12/13 18:34:34;;;;;;;37.63;18.85;;;-3275.20;84.30;;;;;;5113963;28;20099;-55
2022/12/13 18:37:00;;;;;;;41.53;19.67;;;-3275.30;84.00;;;;;;5113626;28;20026;-57
2022/12/13 18:39:27;;;;;;;40.15;19.05;;;-3275.30;83.90;;;;;;5114155;28;20053;-60
2022/12/13 18:41:55;;;;;;;44.25;20.60;;;-3275.30;83.90;;;;;;5114004;28;20077;-59
2022/12/13 18:44:21;;;;;;;43.45;19.00;;;-3275.30;84.10;;;;;;5113841;28;20052;-56
2022/12/13 18:46:48;;;;;;;51.42;22.52;;;-3275.30;83.80;;;;;;5113856;28;20506;-58
2022/12/13 18:49:13;;;;;;;54.50;25.02;;;-3275.20;84.10;;;;;;5112286;28;20026;-55
2022/12/13 18:51:39;;;;;;;43.72;20.90;;;-3275.30;84.10;;;;;;5113585;28;20382;-56
2022/12/13 18:54:05;;;;;;;48.05;21.17;;;-3275.30;84.30;;;;;;5112513;28;20023;-55
2022/12/13 18:56:31;;;;;;;50.08;21.10;;;-3275.20;84.30;;;;;;5113886;28;20417;-59
2022/12/13 18:58:57;;;;;;;48.40;21.20;;;-3275.20;84.50;;;;;;5112547;28;20024;-58
2022/12/13 19:01:25;;;;;;;46.75;21.38;;;-3275.20;84.60;;;;;;5112067;28;20430;-58
2022/12/13 19:03:51;;;;;;;44.95;21.67;;;-3275.20;84.70;;;;;;5113986;28;20016;-58
2022/12/13 19:06:20;;;;;;;40.67;19.23;;;-3275.10;84.90;;;;;;5111858;28;20069;-57
2022/12/13 19:08:47;;;;;;;43.05;20.33;;;-3275.10;84.80;;;;;;5113111;28;20020;-57
2022/12/13 19:11:13;;;;;;;40.22;19.95;;;-3275.20;85.00;;;;;;5112098;28;20425;-59
2022/12/13 19:13:39;;;;;;;52.30;26.92;;;-3275.20;85.20;;;;;;5113502;28;20020;-58
2022/12/13 19:16:08;;;;;;;44.28;20.83;;;-3275.10;85.00;;;;;;5112036;28;20024;-58
2022/12/13 19:18:34;;;;;;;46.70;21.15;;;-3275.10;85.10;;;;;;5114055;28;20023;-58
2022/12/13 19:21:00;;;;;;;47.35;20.58;;;-3275.20;85.10;;;;;;5113344;28;20474;-59
2022/12/13 19:23:26;;;;;;;50.35;21.05;;;-3275.20;85.10;;;;;;5113466;28;20051;-58
2022/12/13 19:25:52;;;;;;;44.63;19.77;;;-3275.20;85.20;;;;;;5113370;28;20051;-59
2022/12/13 19:28:18;;;;;;;42.50;19.50;;;-3275.20;85.20;;;;;;5113042;28;20030;-59
2022/12/13 19:30:47;;;;;;;42.42;21.30;;;-3275.20;84.80;;;;;;5111775;28;20020;-56
2022/12/13 19:33:14;;;;;;;44.10;20.77;;;-3275.20;84.80;;;;;;5113325;27;20467;-59
2022/12/13 19:35:43;;;;;;;43.13;20.30;;;-3275.10;85.00;;;;;;5113519;28;20470;-57
2022/12/13 19:38:09;;;;;;;38.70;19.23;;;-3275.20;85.20;;;;;;5113319;28;20030;-58
2022/12/13 19:40:39;;;;;;;43.65;20.80;;;-3275.20;84.60;;;;;;5113269;28;20099;-57
2022/12/13 19:43:04;;;;;;;42.15;20.83;;;-3275.10;84.80;;;;;;5111976;28;20049;-54
2022/12/13 19:45:30;;;;;;;37.97;20.02;;;-3275.10;84.90;;;;;;5113593;28;20020;-58
2022/12/13 19:47:55;;;;;;;39.00;20.25;;;-3275.10;85.10;;;;;;5114130;28;20133;-56
2022/12/13 19:50:21;;;;;;;38.83;19.77;;;-3275.20;84.70;;;;;;5117061;28;20026;-53
2022/12/13 19:52:47;;;;;;;44.22;20.90;;;-3275.20;84.70;;;;;;5116914;28;20540;-57
2022/12/13 19:55:13;;;;;;;42.03;21.10;;;-3275.10;84.80;;;;;;5116841;28;20020;-56
2022/12/13 19:57:39;;;;;;;45.20;22.33;;;-3275.10;85.10;;;;;;5116845;28;20468;-56
2022/12/13 20:00:05;;;;;;;40.83;20.83;;;-3275.00;85.00;;;;;;5116743;28;20024;-58
2022/12/13 20:02:31;;;;;;;40.72;21.17;;;-3275.00;85.00;;;;;;5116540;28;20059;-58
2022/12/13 20:04:56;;;;;;;40.70;20.98;;;-3275.00;85.40;;;;;;5115713;28;20086;-58
2022/12/13 20:07:25;;;;;;;41.42;20.85;;;-3275.00;85.30;;;;;;5116815;28;20032;-58
2022/12/13 20:09:51;;;;;;;45.75;20.65;;;-3274.90;85.20;;;;;;5116966;28;20485;-58
2022/12/13 20:12:17;;;;;;;45.58;21.02;;;-3274.90;85.50;;;;;;5116697;28;20047;-56
2022/12/13 20:14:42;;;;;;;45.42;21.20;;;-3275.10;85.40;;;;;;5116650;28;20115;-53
2022/12/13 20:17:08;;;;;;;46.72;22.70;;;-3275.20;85.10;;;;;;5117078;28;20027;-54
2022/12/13 20:19:34;;;;;;;41.42;20.77;;;-3275.10;84.80;;;;;;5116522;28;20109;-56
2022/12/13 20:21:59;;;;;;;39.80;20.85;;;-3275.00;85.10;;;;;;5116885;28;20379;-57
2022/12/13 20:24:25;;;;;;;48.00;22.63;;;-3274.90;85.20;;;;;;5116852;28;20060;-57
2022/12/13 20:26:51;;;;;;;49.85;23.33;;;-3274.80;85.70;;;;;;5116539;28;20045;-56
2022/12/13 20:29:17;;;;;;;42.35;23.88;;;-3274.70;85.90;;;;;;5116335;28;20088;-58
2022/12/13 20:31:43;;;;;;;46.25;23.90;;;-3274.70;86.10;;;;;;5116606;28;20023;-59
2022/12/13 20:34:13;;;;;;;47.33;22.23;;;-3274.70;86.30;;;;;;5116581;28;20031;-56
2022/12/13 20:36:40;;;;;;;41.05;18.48;;;-3274.70;86.30;;;;;;5114962;28;20482;-54
2022/12/13 20:39:07;;;;;;;45.30;20.33;;;-3274.80;86.30;;;;;;5116402;28;20051;-55
2022/12/13 20:41:35;;;;;;;40.00;20.13;;;-3274.80;86.20;;;;;;5116390;28;20049;-59
2022/12/13 20:44:02;;;;;;;45.75;20.73;;;-3274.80;85.90;;;;;;5114836;28;20022;-57
2022/12/13 20:46:29;;;;;;;42.55;20.58;;;-3274.80;85.70;;;;;;5116455;28;20513;-60
2022/12/13 20:48:56;;;;;;;41.85;21.23;;;-3274.70;85.80;;;;;;5116442;28;20073;-56
2022/12/13 20:51:24;;;;;;;38.97;19.25;;;-3274.80;85.70;;;;;;5116357;28;20023;-59
2022/12/13 20:53:51;;;;;;;39.40;20.00;;;-3274.90;85.50;;;;;;5114698;28;20032;-56
2022/12/13 20:56:25;;;;;;;42.67;19.40;;;-3274.90;85.60;;;;;;5116259;28;20039;-58
2022/12/13 20:58:51;;;;;;;36.75;20.00;;;-3274.90;85.50;;;;;;5116155;28;20415;-56
